Time;durP1;ratioP1;P1;durP2;ratioP2;P2;SDS_P1;SDS_P2;PMS_P1;PMS_P2;Temp;Humidity;BMP_temperature;BMP_pressure;BME280_temperature;BME280_humidity;BME280_pressure;Samples;Min_cycle;Max_cycle;Signal;HPM_P1;HPM_P2
2021/04/14 00:01:00;;;;;;;5.50;0.82;;;2.90;99.90;;;;;;4995128;28;20054;-71
2021/04/14 00:11:14;;;;;;;2.20;1.00;;;3.10;99.90;;;;;;4993881;28;20037;-72
2021/04/14 00:13:43;;;;;;;1.52;0.63;;;3.20;99.90;;;;;;4987619;28;20078;-72
2021/04/14 00:16:26;;;;;;;1.52;0.60;;;3.30;99.90;;;;;;4980172;28;20043;-72
2021/04/14 00:23:28;;;;;;;1.75;0.90;;;3.40;99.90;;;;;;4993129;28;20437;-72
2021/04/14 00:25:55;;;;;;;0.30;0.30;;;3.40;99.90;;;;;;4975627;28;20479;-72
2021/04/14 00:28:36;;;;;;;2.58;0.60;;;3.40;99.90;;;;;;4994770;28;20394;-72
2021/04/14 00:31:05;;;;;;;0.70;0.32;;;3.40;99.90;;;;;;4975418;28;20051;-72
2021/04/14 00:33:45;;;;;;;1.13;0.65;;;3.40;99.90;;;;;;4994976;28;20042;-72
2021/04/14 00:36:34;;;;;;;0.25;0.25;;;3.40;99.90;;;;;;4992315;28;20047;-72
2021/04/14 00:39:21;;;;;;;2.05;0.55;;;3.30;99.90;;;;;;4986738;28;20049;-72
2021/04/14 00:41:52;;;;;;;0.80;0.45;;;3.30;99.90;;;;;;4986217;28;20043;-72
2021/04/14 00:48:30;;;;;;;1.02;0.50;;;3.30;99.90;;;;;;4987487;28;20044;-72
2021/04/14 00:51:00;;;;;;;0.55;0.32;;;3.20;99.90;;;;;;4994128;28;20049;-72
2021/04/14 00:53:33;;;;;;;1.15;0.47;;;3.10;99.90;;;;;;4981076;28;20069;-72
2021/04/14 00:56:32;;;;;;;0.82;0.50;;;3.10;99.90;;;;;;4994339;28;20100;-72
2021/04/14 00:58:58;;;;;;;1.27;0.40;;;2.90;99.90;;;;;;4984976;28;20396;-72
2021/04/14 01:01:49;;;;;;;3.67;0.77;;;2.90;99.90;;;;;;5031921;28;20127;-72
2021/04/14 01:04:43;;;;;;;0.52;0.38;;;2.80;99.90;;;;;;5019838;28;20088;-72
2021/04/14 01:10:59;;;;;;;1.40;0.40;;;2.60;99.90;;;;;;5023955;28;20036;-72
2021/04/14 01:17:16;;;;;;;1.38;0.50;;;2.50;99.90;;;;;;5033066;28;20044;-72
2021/04/14 01:23:31;;;;;;;0.65;0.38;;;2.60;99.90;;;;;;5029652;28;20041;-72
2021/04/14 01:26:03;;;;;;;0.63;0.40;;;2.60;99.90;;;;;;5026805;28;20080;-72
2021/04/14 01:29:08;;;;;;;0.40;0.30;;;2.60;99.90;;;;;;5024831;28;20052;-72
2021/04/14 01:31:39;;;;;;;0.80;0.40;;;2.60;99.90;;;;;;5028635;28;20045;-72
2021/04/14 01:34:19;;;;;;;1.33;0.35;;;2.50;99.90;;;;;;5026840;28;20042;-72
2021/04/14 01:36:52;;;;;;;1.27;0.45;;;2.50;99.90;;;;;;5015485;28;20049;-72
2021/04/14 01:43:29;;;;;;;0.40;0.30;;;2.40;99.90;;;;;;5032498;28;20037;-72
2021/04/14 01:46:01;;;;;;;0.95;0.47;;;2.30;99.90;;;;;;5044967;28;20048;-72
2021/04/14 01:48:35;;;;;;;1.05;0.40;;;2.20;99.90;;;;;;5032900;28;20112;-72
2021/04/14 01:51:04;;;;;;;0.45;0.38;;;2.20;99.90;;;;;;5032996;28;20033;-72
2021/04/14 01:53:32;;;;;;;4.20;0.50;;;2.10;99.90;;;;;;5032965;28;20045;-72
2021/04/14 01:56:06;;;;;;;1.75;0.50;;;2.10;99.90;;;;;;5024611;28;20059;-72
2021/04/14 01:59:12;;;;;;;3.40;0.47;;;2.10;99.90;;;;;;5021492;28;20057;-73
2021/04/14 02:05:59;;;;;;;0.90;0.50;;;2.20;99.90;;;;;;5012790;28;20049;-71
2021/04/14 02:08:31;;;;;;;0.98;0.40;;;2.20;99.90;;;;;;5012221;28;20127;-71
2021/04/14 02:10:59;;;;;;;1.35;0.70;;;2.30;99.90;;;;;;5012802;28;20064;-72
2021/04/14 02:13:38;;;;;;;0.90;0.52;;;2.40;99.90;;;;;;5013780;28;20092;-72
2021/04/14 02:16:31;;;;;;;2.58;0.40;;;2.70;99.90;;;;;;5012422;28;20080;-72
2021/04/14 02:23:30;;;;;;;2.15;0.40;;;2.70;99.90;;;;;;5003480;28;20592;-73
2021/04/14 02:26:23;;;;;;;0.73;0.30;;;2.70;99.90;;;;;;5016645;28;20045;-73
2021/04/14 02:28:52;;;;;;;1.75;0.40;;;2.80;99.90;;;;;;5015343;28;20042;-72
2021/04/14 02:38:38;;;;;;;1.88;0.30;;;2.80;99.90;;;;;;5016473;28;20096;-73
2021/04/14 02:41:10;;;;;;;1.63;0.50;;;2.90;99.90;;;;;;5015338;28;20046;-73
2021/04/14 02:44:11;;;;;;;0.93;0.60;;;2.90;99.90;;;;;;5015557;28;20135;-73
2021/04/14 02:51:03;;;;;;;1.17;0.50;;;2.90;99.90;;;;;;5015897;28;20072;-73
2021/04/14 03:01:06;;;;;;;1.55;0.50;;;2.90;99.90;;;;;;5024617;28;20053;-72
2021/04/14 03:03:33;;;;;;;1.63;0.50;;;3.00;99.90;;;;;;5035934;28;20069;-72
2021/04/14 03:06:05;;;;;;;0.63;0.30;;;3.00;99.90;;;;;;5035502;28;20052;-72
2021/04/14 03:09:24;;;;;;;0.88;0.30;;;3.00;99.90;;;;;;5019914;28;20042;-71
2021/04/14 03:11:50;;;;;;;1.80;0.57;;;3.00;99.90;;;;;;5027049;28;20038;-72
2021/04/14 03:18:29;;;;;;;1.40;0.60;;;2.90;99.90;;;;;;5035130;28;20448;-71
2021/04/14 03:21:01;;;;;;;1.70;0.68;;;2.90;99.90;;;;;;5034276;28;20041;-72
2021/04/14 03:23:29;;;;;;;1.88;0.52;;;2.80;99.90;;;;;;5035407;28;20041;-72
2021/04/14 03:25:55;;;;;;;1.73;0.60;;;2.90;99.90;;;;;;5035008;28;20056;-72
2021/04/14 03:28:30;;;;;;;2.00;0.50;;;2.90;99.90;;;;;;5035454;28;20053;-72
2021/04/14 03:30:59;;;;;;;2.08;0.40;;;2.90;99.90;;;;;;5034709;28;20037;-72
2021/04/14 03:33:29;;;;;;;2.10;0.45;;;2.90;99.90;;;;;;5034364;28;20041;-71
2021/04/14 03:36:01;;;;;;;0.93;0.43;;;2.80;99.90;;;;;;5034766;28;20045;-71
2021/04/14 03:39:00;;;;;;;1.33;0.50;;;2.80;99.90;;;;;;5034605;28;20152;-71
2021/04/14 03:41:31;;;;;;;0.28;0.28;;;2.70;99.90;;;;;;5019145;28;20042;-72
2021/04/14 03:44:24;;;;;;;1.33;0.38;;;2.60;99.90;;;;;;5034758;28;20042;-72
2021/04/14 03:51:02;;;;;;;1.50;0.50;;;2.50;99.90;;;;;;5033764;28;20144;-72
2021/04/14 03:53:32;;;;;;;0.28;0.28;;;2.40;99.90;;;;;;5034867;28;20052;-72
2021/04/14 03:56:18;;;;;;;0.50;0.32;;;2.30;99.90;;;;;;5034595;28;20042;-71
2021/04/14 04:03:29;;;;;;;0.50;0.40;;;2.20;99.90;;;;;;5026730;28;20060;-71
2021/04/14 04:06:00;;;;;;;0.30;0.30;;;2.10;99.90;;;;;;5034492;28;20041;-71
2021/04/14 04:09:05;;;;;;;2.00;0.50;;;2.10;99.90;;;;;;5036755;28;20040;-72
2021/04/14 04:11:31;;;;;;;1.35;0.40;;;2.00;99.90;;;;;;5020834;28;20048;-71
2021/04/14 04:18:29;;;;;;;3.17;0.70;;;1.90;99.90;;;;;;5034038;28;20121;-71
2021/04/14 04:21:31;;;;;;;0.70;0.40;;;1.80;99.90;;;;;;5034337;28;20099;-71
2021/04/14 04:28:30;;;;;;;1.27;0.32;;;1.70;99.90;;;;;;5028890;28;20119;-71
2021/04/14 04:31:03;;;;;;;0.80;0.32;;;1.70;99.90;;;;;;5034103;28;20042;-72
2021/04/14 04:33:30;;;;;;;0.75;0.50;;;1.70;99.90;;;;;;5034090;28;20043;-71
2021/04/14 04:36:00;;;;;;;2.83;0.45;;;1.60;99.90;;;;;;5034124;28;20095;-71
2021/04/14 04:38:30;;;;;;;0.90;0.43;;;1.60;99.90;;;;;;5026838;28;20045;-71
2021/04/14 04:41:04;;;;;;;3.85;0.70;;;1.60;99.90;;;;;;5042817;28;20038;-71
2021/04/14 04:43:31;;;;;;;2.22;0.40;;;1.60;99.90;;;;;;5033444;28;20476;-72
2021/04/14 04:45:59;;;;;;;1.02;0.50;;;1.60;99.90;;;;;;5028409;28;20151;-72
2021/04/14 04:48:47;;;;;;;0.77;0.30;;;1.60;99.90;;;;;;5034322;28;20106;-72
2021/04/14 04:51:35;;;;;;;0.75;0.43;;;1.60;99.90;;;;;;5032988;28;20038;-71
2021/04/14 04:58:29;;;;;;;0.50;0.38;;;1.60;99.90;;;;;;5033415;28;20087;-71
2021/04/14 05:01:07;;;;;;;2.15;0.35;;;1.60;99.90;;;;;;5021908;28;20120;-72
2021/04/14 05:07:29;;;;;;;0.30;0.30;;;1.70;99.90;;;;;;5033377;28;20133;-71
2021/04/14 05:10:01;;;;;;;1.67;0.50;;;1.70;99.90;;;;;;5033257;28;20065;-71
2021/04/14 05:12:53;;;;;;;2.55;0.40;;;1.70;99.90;;;;;;5033962;28;20068;-71
2021/04/14 05:15:39;;;;;;;0.60;0.40;;;1.70;99.90;;;;;;5028492;28;20049;-71
2021/04/14 05:18:11;;;;;;;0.35;0.30;;;1.70;99.90;;;;;;5028728;28;20045;-70
2021/04/14 05:20:39;;;;;;;0.73;0.47;;;1.70;99.90;;;;;;5028698;28;20585;-72
2021/04/14 05:26:52;;;;;;;1.00;0.50;;;1.70;99.90;;;;;;5030368;28;20049;-71
2021/04/14 05:30:01;;;;;;;0.80;0.43;;;1.70;99.90;;;;;;5031766;28;20477;-71
2021/04/14 05:32:29;;;;;;;0.98;0.40;;;1.80;99.90;;;;;;5032650;28;20045;-72
2021/04/14 05:43:05;;;;;;;3.10;0.57;;;1.90;99.90;;;;;;5031905;28;20033;-71
2021/04/14 05:50:02;;;;;;;1.45;0.40;;;1.90;99.90;;;;;;5016580;28;20056;-71
2021/04/14 05:52:40;;;;;;;0.93;0.30;;;2.00;99.90;;;;;;5032847;28;20049;-72
2021/04/14 05:55:53;;;;;;;1.50;0.50;;;2.00;99.90;;;;;;5018348;28;20046;-72
2021/04/14 05:58:40;;;;;;;1.75;0.50;;;2.00;99.90;;;;;;5028696;28;20048;-72
2021/04/14 06:05:50;;;;;;;1.08;0.60;;;2.10;99.90;;;;;;5017080;28;20081;-72
2021/04/14 06:08:18;;;;;;;1.10;0.57;;;2.20;99.90;;;;;;5017174;28;20100;-72
2021/04/14 06:10:50;;;;;;;1.05;0.50;;;2.30;99.90;;;;;;5016618;28;20045;-70
2021/04/14 06:17:06;;;;;;;1.17;0.57;;;2.50;99.90;;;;;;5011094;28;20468;-71
2021/04/14 06:20:03;;;;;;;1.83;0.50;;;2.70;99.90;;;;;;5010075;28;20077;-73
2021/04/14 06:22:36;;;;;;;2.15;0.63;;;2.70;99.90;;;;;;5016648;28;20092;-72
2021/04/14 06:25:07;;;;;;;2.08;0.70;;;2.90;99.90;;;;;;5011355;28;20100;-71
2021/04/14 06:27:41;;;;;;;1.58;0.63;;;3.00;99.90;;;;;;5001042;28;20367;-73
2021/04/14 06:30:18;;;;;;;2.15;0.73;;;3.10;99.90;;;;;;5011645;28;20057;-72
2021/04/14 06:33:08;;;;;;;2.90;0.90;;;3.20;99.90;;;;;;5013895;28;20100;-74
2021/04/14 06:35:56;;;;;;;1.50;0.50;;;3.30;99.90;;;;;;5012124;28;20116;-72
2021/04/14 06:43:07;;;;;;;2.35;0.70;;;3.60;99.90;;;;;;5016028;28;20085;-73
2021/04/14 06:45:53;;;;;;;3.95;0.80;;;3.80;99.90;;;;;;5013886;28;20065;-73
2021/04/14 06:48:45;;;;;;;3.30;0.80;;;3.90;99.90;;;;;;4994224;28;20073;-73
2021/04/14 06:55:15;;;;;;;2.55;0.57;;;4.00;99.90;;;;;;4988054;28;20512;-71
2021/04/14 07:05:08;;;;;;;3.35;0.50;;;4.50;99.90;;;;;;4973269;28;20117;-74
2021/04/14 07:08:15;;;;;;;6.88;0.52;;;4.50;99.90;;;;;;4973509;28;20055;-73
2021/04/14 07:11:21;;;;;;;1.55;0.73;;;4.60;99.90;;;;;;4996439;28;20087;-72
2021/04/14 07:13:54;;;;;;;5.97;0.80;;;4.80;99.90;;;;;;4984870;28;20058;-70
2021/04/14 07:20:38;;;;;;;2.50;0.52;;;4.90;99.90;;;;;;5011824;28;20033;-72
2021/04/14 07:23:40;;;;;;;0.98;0.50;;;4.90;99.90;;;;;;4990209;28;20101;-73
2021/04/14 07:26:41;;;;;;;0.77;0.40;;;4.90;99.90;;;;;;4992971;28;20061;-69
2021/04/14 07:29:28;;;;;;;3.20;0.50;;;5.00;99.90;;;;;;4987049;28;20038;-72
2021/04/14 07:32:59;;;;;;;1.92;0.60;;;5.10;99.90;;;;;;4988499;28;20062;-72
2021/04/14 07:35:40;;;;;;;4.97;1.10;;;5.20;99.90;;;;;;4985193;28;20151;-72
2021/04/14 07:38:42;;;;;;;6.90;1.00;;;5.30;99.90;;;;;;4975937;28;20054;-72
2021/04/14 07:41:54;;;;;;;5.00;0.77;;;5.30;99.90;;;;;;4995866;28;20397;-71
2021/04/14 07:48:18;;;;;;;3.30;0.52;;;5.40;99.90;;;;;;4991624;28;20043;-72
2021/04/14 07:51:07;;;;;;;1.10;0.50;;;5.50;99.90;;;;;;4982225;28;20093;-72
2021/04/14 07:53:57;;;;;;;2.25;0.68;;;5.60;99.90;;;;;;4989700;28;20050;-71
2021/04/14 08:00:41;;;;;;;7.53;1.15;;;5.80;99.90;;;;;;4994819;28;20065;-71
2021/04/14 08:03:28;;;;;;;1.50;0.60;;;5.90;99.90;;;;;;4990357;28;20045;-71
2021/04/14 08:06:27;;;;;;;1.42;0.55;;;5.70;99.90;;;;;;4995474;28;20046;-71
2021/04/14 08:09:21;;;;;;;1.42;0.40;;;5.30;99.90;;;;;;4994694;28;20389;-71
2021/04/14 08:16:08;;;;;;;4.72;1.80;;;4.80;99.90;;;;;;4995074;28;20209;-70
2021/04/14 08:18:47;;;;;;;10.77;3.05;;;4.70;99.90;;;;;;4994513;28;20038;-72
2021/04/14 08:28:49;;;;;;;2.28;0.60;;;4.50;99.90;;;;;;4977796;28;20479;-72
2021/04/14 08:31:46;;;;;;;1.25;0.50;;;4.50;99.90;;;;;;4983477;28;20486;-72
2021/04/14 08:38:25;;;;;;;0.57;0.30;;;4.60;99.90;;;;;;4989053;28;20501;-72
2021/04/14 08:41:28;;;;;;;1.02;0.30;;;4.70;99.90;;;;;;4995392;28;20046;-71
2021/04/14 08:48:08;;;;;;;1.60;0.45;;;4.90;99.90;;;;;;4984029;28;20193;-74
2021/04/14 08:51:04;;;;;;;1.63;0.40;;;4.90;99.90;;;;;;4991188;28;20046;-76
2021/04/14 08:53:47;;;;;;;0.80;0.30;;;5.00;99.90;;;;;;4994020;28;20517;-73
2021/04/14 08:56:15;;;;;;;3.55;0.40;;;5.00;99.90;;;;;;4994093;28;20050;-73
2021/04/14 08:59:02;;;;;;;0.68;0.35;;;5.00;99.90;;;;;;4987092;28;20149;-73
2021/04/14 09:01:41;;;;;;;2.47;0.50;;;5.10;99.90;;;;;;4990408;28;20121;-74
2021/04/14 09:08:10;;;;;;;3.65;0.93;;;5.20;99.90;;;;;;4990092;28;20049;-74
2021/04/14 09:10:42;;;;;;;1.35;0.40;;;5.20;99.90;;;;;;4988675;28;20121;-71
2021/04/14 09:13:33;;;;;;;3.75;0.60;;;5.30;99.90;;;;;;4993339;28;20144;-72
2021/04/14 09:20:23;;;;;;;6.13;1.30;;;5.60;99.90;;;;;;4994088;28;20085;-72
2021/04/14 09:30:57;;;;;;;4.07;0.68;;;6.10;99.90;;;;;;4988210;28;20032;-73
2021/04/14 09:33:46;;;;;;;5.57;0.60;;;6.40;99.90;;;;;;4980857;28;20104;-73
2021/04/14 09:40:31;;;;;;;3.60;0.93;;;6.70;99.90;;;;;;4978578;28;20541;-72
2021/04/14 09:42:59;;;;;;;1.48;0.65;;;6.90;99.90;;;;;;4995266;28;20073;-74
2021/04/14 09:45:55;;;;;;;12.35;1.27;;;6.90;99.90;;;;;;4997810;28;20042;-71
2021/04/14 09:48:44;;;;;;;2.20;0.60;;;6.80;99.90;;;;;;4982032;28;20513;-73
2021/04/14 09:51:39;;;;;;;6.47;1.42;;;6.80;99.90;;;;;;5012937;28;20046;-74
2021/04/14 09:58:03;;;;;;;3.88;0.70;;;6.60;99.90;;;;;;4997235;28;20092;-73
2021/04/14 10:00:55;;;;;;;0.80;0.50;;;6.30;99.90;;;;;;4993762;28;20042;-71
2021/04/14 10:03:36;;;;;;;3.70;0.77;;;6.40;99.90;;;;;;4976676;28;20055;-72
2021/04/14 10:06:13;;;;;;;1.42;0.40;;;6.40;99.90;;;;;;4993118;28;20128;-72
2021/04/14 10:09:22;;;;;;;2.88;0.57;;;6.50;99.90;;;;;;5035707;28;20077;-73
2021/04/14 10:12:19;;;;;;;1.85;0.60;;;6.50;99.90;;;;;;5021195;28;20042;-72
2021/04/14 10:15:28;;;;;;;3.10;0.93;;;6.70;99.90;;;;;;5036753;28;20220;-71
2021/04/14 10:18:21;;;;;;;1.60;0.40;;;6.90;99.90;;;;;;5016714;28;20091;-72
2021/04/14 10:21:18;;;;;;;1.55;0.35;;;7.10;99.90;;;;;;5035481;28;20378;-71
2021/04/14 10:23:45;;;;;;;3.28;0.50;;;7.20;99.90;;;;;;5018785;28;20121;-72
2021/04/14 10:30:26;;;;;;;7.00;0.98;;;7.60;99.90;;;;;;5031027;28;20520;-72
2021/04/14 10:33:07;;;;;;;1.60;0.50;;;7.70;99.90;;;;;;5020846;28;20057;-73
2021/04/14 10:35:36;;;;;;;2.35;0.52;;;7.60;99.90;;;;;;5035022;28;20042;-72
2021/04/14 10:38:05;;;;;;;4.63;0.85;;;7.60;99.90;;;;;;5031794;28;20051;-71
2021/04/14 10:40:46;;;;;;;2.97;0.60;;;7.60;99.90;;;;;;5033633;28;20042;-69
2021/04/14 10:43:26;;;;;;;7.13;0.95;;;7.50;99.90;;;;;;5035340;28;20041;-69
2021/04/14 10:46:32;;;;;;;8.48;0.90;;;7.50;99.90;;;;;;5034547;28;20053;-71
2021/04/14 10:53:16;;;;;;;5.72;0.68;;;7.30;99.90;;;;;;5034668;28;20113;-72
2021/04/14 10:56:15;;;;;;;0.52;0.30;;;7.30;99.90;;;;;;5033613;28;20044;-71
2021/04/14 11:06:05;;;;;;;1.45;0.60;;;7.60;99.90;;;;;;5033892;28;20099;-71
2021/04/14 11:09:18;;;;;;;1.60;0.55;;;7.80;99.90;;;;;;5034654;28;20037;-71
2021/04/14 11:16:02;;;;;;;4.47;0.82;;;7.60;99.90;;;;;;5031574;28;20160;-70
2021/04/14 11:18:42;;;;;;;6.18;1.40;;;7.60;99.90;;;;;;5034500;28;20037;-71
2021/04/14 11:25:29;;;;;;;3.13;0.40;;;7.70;99.90;;;;;;5035054;28;20036;-73
2021/04/14 11:43:03;;;;;;;2.40;0.60;;;8.20;99.90;;;;;;5034659;28;20087;-71
2021/04/14 11:45:38;;;;;;;4.55;0.65;;;8.10;99.90;;;;;;5033591;28;20111;-72
2021/04/14 11:48:15;;;;;;;3.13;0.60;;;8.00;99.90;;;;;;5033806;28;20547;-72
2021/04/14 11:51:09;;;;;;;2.83;0.60;;;7.90;99.90;;;;;;5034840;28;20068;-71
2021/04/14 11:53:54;;;;;;;3.25;0.80;;;8.00;99.90;;;;;;5026026;28;20045;-73
2021/04/14 11:56:36;;;;;;;2.50;0.60;;;8.10;99.90;;;;;;5030760;28;20042;-72
2021/04/14 11:59:22;;;;;;;2.55;0.50;;;8.20;99.90;;;;;;5024272;28;20478;-71
2021/04/14 12:02:12;;;;;;;2.10;0.50;;;8.20;99.90;;;;;;5022454;28;20038;-69
2021/04/14 12:08:20;;;;;;;2.17;0.70;;;8.10;99.90;;;;;;5030725;28;20184;-72
2021/04/14 12:10:52;;;;;;;2.47;0.63;;;8.30;99.90;;;;;;5020331;28;20385;-72
2021/04/14 12:13:31;;;;;;;4.18;0.80;;;8.30;99.90;;;;;;5027709;28;20049;-72
2021/04/14 12:31:00;;;;;;;3.33;0.60;;;8.30;99.90;;;;;;5033806;28;20047;-72
2021/04/14 12:33:32;;;;;;;2.25;0.60;;;8.40;99.90;;;;;;5029211;28;20112;-71
2021/04/14 12:36:00;;;;;;;4.63;0.80;;;8.30;99.90;;;;;;5033053;28;20041;-74
2021/04/14 12:38:28;;;;;;;2.35;1.25;;;8.20;99.90;;;;;;5023087;28;20046;-68
2021/04/14 12:41:02;;;;;;;4.18;0.65;;;8.10;99.90;;;;;;5033562;28;20107;-68
2021/04/14 12:43:39;;;;;;;2.83;0.50;;;8.10;99.90;;;;;;5032879;28;20050;-69
2021/04/14 12:46:05;;;;;;;4.82;0.70;;;8.20;99.90;;;;;;5029138;28;20046;-68
2021/04/14 12:48:38;;;;;;;2.70;0.63;;;8.20;99.90;;;;;;5014097;28;20100;-67
2021/04/14 12:51:36;;;;;;;2.47;0.60;;;8.20;99.90;;;;;;5033168;28;20046;-68
2021/04/14 12:54:18;;;;;;;5.53;1.45;;;8.20;99.90;;;;;;5014209;28;20620;-67
2021/04/14 12:56:54;;;;;;;3.95;1.20;;;8.30;99.90;;;;;;5033119;28;20079;-68
2021/04/14 13:03:38;;;;;;;2.75;0.50;;;8.30;99.90;;;;;;5032268;28;20083;-70
2021/04/14 13:06:16;;;;;;;1.65;0.50;;;8.40;99.90;;;;;;5030235;28;20104;-69
2021/04/14 13:08:44;;;;;;;0.90;0.45;;;8.60;99.90;;;;;;5033027;28;20072;-68
2021/04/14 13:11:32;;;;;;;2.22;0.57;;;8.70;99.90;;;;;;5032953;28;20037;-68
2021/04/14 13:14:05;;;;;;;1.55;0.65;;;8.80;99.90;;;;;;5015560;28;20120;-67
2021/04/14 13:17:08;;;;;;;1.13;0.50;;;8.80;99.90;;;;;;5033262;28;20037;-68
2021/04/14 13:23:41;;;;;;;3.42;0.70;;;8.80;99.90;;;;;;5033061;28;20384;-67
2021/04/14 13:26:17;;;;;;;1.45;0.40;;;8.80;99.90;;;;;;5033488;28;20049;-69
2021/04/14 13:29:18;;;;;;;0.93;0.30;;;8.80;99.90;;;;;;5029991;28;20034;-69
2021/04/14 13:36:03;;;;;;;1.95;0.45;;;8.90;99.90;;;;;;5028443;28;20045;-75
2021/04/14 13:38:38;;;;;;;3.97;0.73;;;8.90;99.90;;;;;;5013466;28;20058;-67
2021/04/14 13:41:20;;;;;;;0.65;0.40;;;8.90;99.90;;;;;;5014212;28;20100;-72
2021/04/14 13:44:14;;;;;;;0.88;0.50;;;9.00;99.90;;;;;;5031001;28;20100;-69
2021/04/14 13:47:11;;;;;;;3.33;0.60;;;9.10;99.90;;;;;;5019157;28;20076;-70
2021/04/14 13:49:58;;;;;;;2.42;0.60;;;9.10;99.90;;;;;;5024897;28;20073;-69
2021/04/14 13:56:35;;;;;;;3.58;0.80;;;8.70;99.90;;;;;;5028285;28;20111;-69
2021/04/14 13:59:26;;;;;;;1.52;0.50;;;8.60;99.90;;;;;;5019729;28;20489;-73
2021/04/14 14:02:03;;;;;;;2.75;0.77;;;8.50;99.90;;;;;;5032913;28;20126;-74
2021/04/14 14:04:36;;;;;;;0.90;0.43;;;8.40;99.90;;;;;;5031951;28;20064;-71
2021/04/14 14:07:04;;;;;;;2.30;0.70;;;8.40;99.90;;;;;;5025347;28;20128;-71
2021/04/14 14:21:34;;;;;;;3.40;0.75;;;8.00;99.90;;;;;;5036435;28;20038;-70
2021/04/14 14:24:22;;;;;;;7.13;0.80;;;8.00;99.90;;;;;;5035931;28;20152;-70
2021/04/14 14:27:05;;;;;;;3.65;0.60;;;8.00;99.90;;;;;;5035309;28;20038;-70
2021/04/14 14:33:43;;;;;;;2.63;0.63;;;8.20;99.90;;;;;;5031756;28;20127;-70
2021/04/14 14:36:35;;;;;;;3.63;0.80;;;8.40;99.90;;;;;;5035089;28;20041;-70
2021/04/14 14:43:37;;;;;;;3.40;0.65;;;8.30;99.90;;;;;;5023125;28;20064;-71
2021/04/14 14:46:21;;;;;;;6.97;1.33;;;8.30;99.90;;;;;;5017001;28;20500;-73
2021/04/14 14:49:10;;;;;;;6.13;0.82;;;8.30;99.90;;;;;;5035248;28;20091;-73
2021/04/14 14:51:50;;;;;;;3.08;0.63;;;8.40;99.90;;;;;;5031481;28;20112;-71
2021/04/14 14:54:20;;;;;;;3.15;0.60;;;8.50;99.90;;;;;;5034055;28;20042;-71
2021/04/14 15:01:10;;;;;;;2.50;0.60;;;8.50;99.90;;;;;;5035593;28;20036;-71
2021/04/14 15:03:55;;;;;;;8.50;0.82;;;8.60;99.90;;;;;;5031379;28;20091;-70
2021/04/14 15:06:29;;;;;;;5.00;0.80;;;8.70;99.90;;;;;;5035412;28;20076;-70
2021/04/14 15:09:08;;;;;;;0.93;0.55;;;8.90;99.90;;;;;;5051072;28;20062;-73
2021/04/14 15:12:03;;;;;;;2.65;0.82;;;8.60;99.90;;;;;;5035636;28;20076;-72
2021/04/14 15:18:11;;;;;;;7.55;0.70;;;8.50;99.90;;;;;;5029190;28;20039;-73
2021/04/14 15:20:43;;;;;;;3.28;0.68;;;8.50;99.90;;;;;;5033234;28;20044;-73
2021/04/14 15:23:51;;;;;;;2.28;0.65;;;8.50;99.90;;;;;;5033125;28;20092;-72
2021/04/14 15:26:24;;;;;;;1.88;0.60;;;8.60;99.90;;;;;;5031481;28;20064;-71
2021/04/14 15:29:12;;;;;;;0.70;0.38;;;8.50;99.90;;;;;;5035248;28;20041;-73
2021/04/14 15:31:56;;;;;;;1.33;0.57;;;8.50;99.90;;;;;;5019038;28;20049;-72
2021/04/14 15:34:24;;;;;;;2.90;0.52;;;8.60;99.90;;;;;;5021289;28;20397;-75
2021/04/14 15:41:12;;;;;;;2.67;0.60;;;8.90;99.90;;;;;;5034762;28;20045;-75
2021/04/14 15:43:48;;;;;;;2.65;0.45;;;8.80;99.90;;;;;;5027948;28;20392;-75
2021/04/14 15:46:15;;;;;;;5.22;0.80;;;8.90;99.90;;;;;;5032296;28;20041;-75
2021/04/14 15:48:48;;;;;;;2.95;1.15;;;8.90;99.90;;;;;;5033841;28;20556;-76
2021/04/14 15:51:34;;;;;;;2.20;0.60;;;8.70;99.90;;;;;;5030191;28;20069;-73
2021/04/14 15:54:06;;;;;;;4.70;0.63;;;8.80;99.90;;;;;;5032006;28;20044;-73
2021/04/14 15:56:38;;;;;;;5.25;0.70;;;8.70;99.90;;;;;;5034511;28;20539;-69
2021/04/14 15:59:11;;;;;;;6.55;0.77;;;8.60;99.90;;;;;;5034556;28;20042;-66
2021/04/14 16:01:49;;;;;;;;;;;8.40;99.90;;;;;;5015457;28;20077;-70
2021/04/14 16:04:34;;;;;;;3.45;0.73;;;8.20;99.90;;;;;;5031882;28;20064;-70
2021/04/14 16:07:37;;;;;;;4.82;0.60;;;8.00;99.90;;;;;;5030821;28;20136;-67
2021/04/14 16:10:10;;;;;;;2.83;0.73;;;7.90;99.90;;;;;;5014417;28;20053;-70
2021/04/14 16:16:41;;;;;;;7.00;1.27;;;7.60;99.90;;;;;;5022946;28;20044;-69
2021/04/14 16:19:18;;;;;;;11.05;1.90;;;7.40;99.90;;;;;;5031047;28;20050;-70
2021/04/14 16:21:45;;;;;;;5.18;0.95;;;7.30;99.90;;;;;;5034124;28;20057;-69
2021/04/14 16:24:14;;;;;;;5.28;1.20;;;7.30;99.90;;;;;;5028133;28;20049;-70
2021/04/14 16:26:43;;;;;;;7.05;1.00;;;7.20;99.90;;;;;;5030444;28;20052;-73
2021/04/14 16:29:38;;;;;;;4.70;0.95;;;7.20;99.90;;;;;;5034246;28;20061;-69
2021/04/14 16:32:11;;;;;;;3.30;0.63;;;7.30;99.90;;;;;;5031189;28;20037;-68
2021/04/14 16:34:55;;;;;;;2.45;0.60;;;7.40;99.90;;;;;;5014690;28;20042;-70
2021/04/14 16:37:25;;;;;;;4.72;1.10;;;7.20;99.90;;;;;;5033807;28;20049;-70
2021/04/14 16:40:13;;;;;;;3.92;0.75;;;7.10;99.90;;;;;;5033063;28;20045;-71
2021/04/14 16:49:41;;;;;;;3.55;0.50;;;7.10;99.90;;;;;;5021968;28;20045;-71
2021/04/14 16:52:14;;;;;;;6.55;0.73;;;7.10;99.90;;;;;;5029147;28;20045;-73
2021/04/14 16:54:41;;;;;;;2.57;0.77;;;7.30;99.90;;;;;;5026244;28;20049;-72
2021/04/14 16:57:17;;;;;;;2.33;0.60;;;7.30;99.90;;;;;;5033451;28;20045;-71
2021/04/14 16:59:45;;;;;;;4.70;0.88;;;7.40;99.90;;;;;;5030434;28;20120;-71
2021/04/14 17:02:19;;;;;;;3.15;0.52;;;7.30;99.90;;;;;;5033082;28;20048;-70
2021/04/14 17:04:53;;;;;;;6.57;0.90;;;7.30;99.90;;;;;;5026187;28;20049;-70
2021/04/14 17:07:21;;;;;;;1.73;0.60;;;7.30;99.90;;;;;;5030087;28;20037;-71
2021/04/14 17:09:54;;;;;;;3.15;0.68;;;7.30;99.90;;;;;;5030547;28;20107;-70
2021/04/14 17:12:21;;;;;;;6.82;0.88;;;7.10;99.90;;;;;;5026345;28;20038;-71
2021/04/14 17:14:55;;;;;;;3.95;0.88;;;7.20;99.90;;;;;;5033411;28;20041;-70
2021/04/14 17:17:21;;;;;;;3.13;0.75;;;7.10;99.90;;;;;;5020713;28;20046;-70
2021/04/14 17:19:53;;;;;;;7.13;0.95;;;7.10;99.90;;;;;;5033120;28;20064;-72
2021/04/14 17:22:31;;;;;;;3.67;0.73;;;7.00;99.90;;;;;;5031268;28;20455;-74
2021/04/14 17:25:28;;;;;;;3.00;0.80;;;7.00;99.90;;;;;;5031489;28;20053;-70
2021/04/14 17:32:21;;;;;;;2.53;0.63;;;7.00;99.90;;;;;;5033045;28;20037;-71
2021/04/14 17:34:53;;;;;;;2.67;0.80;;;6.90;99.90;;;;;;5014094;28;20042;-70
2021/04/14 17:37:34;;;;;;;5.78;1.40;;;6.90;99.90;;;;;;5013192;28;20052;-70
2021/04/14 17:40:02;;;;;;;10.50;0.85;;;6.90;99.90;;;;;;5015210;28;20478;-70
2021/04/14 17:42:34;;;;;;;6.43;1.17;;;6.90;99.90;;;;;;5032914;28;20045;-70
2021/04/14 17:45:06;;;;;;;4.00;1.13;;;6.80;99.90;;;;;;5031978;28;20045;-71
2021/04/14 17:47:49;;;;;;;13.88;1.10;;;6.80;99.90;;;;;;5018799;28;20052;-70
2021/04/14 17:50:30;;;;;;;7.60;1.33;;;6.70;99.90;;;;;;5029101;28;20046;-70
2021/04/14 17:53:23;;;;;;;4.68;1.13;;;6.60;99.90;;;;;;5023825;28;20045;-71
2021/04/14 17:55:57;;;;;;;11.60;1.58;;;6.50;99.90;;;;;;5034624;28;20081;-70
2021/04/14 18:02:47;;;;;;;3.72;0.85;;;6.40;99.90;;;;;;5036691;28;20443;-69
2021/04/14 18:05:21;;;;;;;4.60;0.77;;;6.40;99.90;;;;;;5035307;28;20096;-69
2021/04/14 18:07:47;;;;;;;4.45;0.88;;;6.30;99.90;;;;;;5031262;28;20064;-65
2021/04/14 18:10:24;;;;;;;4.13;1.00;;;6.30;99.90;;;;;;5036468;28;20128;-71
2021/04/14 18:17:23;;;;;;;2.00;0.60;;;6.10;99.90;;;;;;5029758;28;20096;-69
2021/04/14 18:19:52;;;;;;;1.58;0.60;;;6.10;99.90;;;;;;5034931;28;20484;-67
2021/04/14 18:22:24;;;;;;;3.80;0.70;;;6.10;99.90;;;;;;5036531;28;20037;-67
2021/04/14 18:24:53;;;;;;;2.03;0.50;;;6.10;99.90;;;;;;5016834;28;20052;-68
2021/04/14 18:27:26;;;;;;;3.20;0.70;;;6.30;99.90;;;;;;5036526;28;20096;-70
2021/04/14 18:29:55;;;;;;;5.93;1.13;;;6.10;99.90;;;;;;5031435;28;20038;-69
2021/04/14 18:32:36;;;;;;;3.17;0.70;;;6.20;99.90;;;;;;5016794;28;20037;-68
2021/04/14 18:35:26;;;;;;;3.70;0.82;;;6.10;99.90;;;;;;5035882;28;20060;-69
2021/04/14 18:38:12;;;;;;;3.28;0.85;;;6.00;99.90;;;;;;5031402;28;20107;-68
2021/04/14 18:40:57;;;;;;;1.58;0.63;;;5.90;99.90;;;;;;5023028;28;20442;-69
2021/04/14 18:47:22;;;;;;;5.40;0.80;;;5.90;99.90;;;;;;5035699;28;20084;-68
2021/04/14 18:49:54;;;;;;;2.00;0.55;;;5.80;99.90;;;;;;5036248;28;20049;-68
2021/04/14 18:52:33;;;;;;;1.92;0.70;;;5.70;99.90;;;;;;5038851;28;20137;-67
2021/04/14 18:55:07;;;;;;;2.75;0.80;;;5.70;99.90;;;;;;5035723;28;20172;-71
2021/04/14 18:57:45;;;;;;;3.55;0.63;;;5.70;99.90;;;;;;5035609;28;20045;-70
2021/04/14 19:00:35;;;;;;;6.45;0.70;;;5.60;99.90;;;;;;5035492;28;20041;-70
2021/04/14 19:03:14;;;;;;;1.60;0.40;;;5.60;99.90;;;;;;5032780;28;20090;-70
2021/04/14 19:06:01;;;;;;;1.95;0.60;;;5.60;99.90;;;;;;5027279;28;20041;-68
2021/04/14 19:08:27;;;;;;;3.60;0.60;;;5.60;99.90;;;;;;5028629;28;20073;-70
2021/04/14 19:14:56;;;;;;;1.15;0.50;;;5.50;99.90;;;;;;5031454;28;20041;-68
2021/04/14 19:17:31;;;;;;;2.90;0.73;;;5.40;99.90;;;;;;5035467;28;20050;-68
2021/04/14 19:20:01;;;;;;;2.67;0.63;;;5.40;99.90;;;;;;5035218;28;20042;-69
2021/04/14 19:22:29;;;;;;;2.25;0.60;;;5.30;99.90;;;;;;5035188;28;20072;-64
2021/04/14 19:25:22;;;;;;;3.05;0.70;;;5.40;99.90;;;;;;5035293;28;20050;-68